VVPB/HUI METAR and TAF weather

Enter ICAO airport designator
Station Type Date Time Source
VVPB METAR 2022/09/26 09:30 UTC NOAA

VVPB 260930Z 11002KT 8000 FEW015 BKN050 27/25 Q1007 NOSIG


Station Type Date Time Source
VVPB Decoded METAR 2022/09/26 09:30 UTC NOAA

Hue, Vietnam (VVPB) 16-24N 107-41E 17M
Sep 26, 2022 - 05:30 AM EDT / 2022.09.26 0930 UTC
Wind: from the ESE (110 degrees) at 2 MPH (2 KT):0
Visibility: 4 mile(s):0
Sky conditions: mostly cloudy
Temperature: 80 F (27 C)
Dew Point: 77 F (25 C)
Relative Humidity: 88%
Pressure (altimeter): 29.74 in. Hg (1007 hPa)
ob: VVPB 260930Z 11002KT 8000 FEW015 BKN050 27/25 Q1007 NOSIG
cycle: 9

Station Type Date Time Source
VVPB TAF 2022/09/26 06:00 UTC NOAA

TAF VVPB 260500Z 2606/2706 30007KT 9999 SCT015 BKN050
TEMPO 2606/2612 4500 TSRA SCT013 FEW015CB BKN050
TEMPO 2614/2618 4000 TSRA SCT013 FEW015CB BKN050
TEMPO 2621/2701 2800 +TSRA SCT013 FEW015CB BKN050

Example: see airport list